Time,TemperatureF,DewpointF,PressureIn,WindDirection,WindDirectionDegrees,WindSpeedMPH,WindSpeedGustMPH,Humidity,HourlyPrecipIn,Conditions,Clouds,dailyrainin,SoftwareType,DateUTC
2013-02-27 00:01:00,46.2,45.0,29.63,NE,51,0.0,-999.0,96,-99.99,,,0.00,weatherlink.com 1.10,2013-02-27 05:01:00,
2013-02-27 00:16:00,46.0,45.0,29.64,SE,129,0.0,-999.0,96,-99.99,,,0.00,weatherlink.com 1.10,2013-02-27 05:16:00,
2013-02-27 00:47:00,46.0,45.0,29.64,SE,128,0.0,-999.0,96,-99.99,,,0.00,weatherlink.com 1.10,2013-02-27 05:47:00,
2013-02-27 01:01:00,45.4,44.0,29.64,SE,128,0.0,-999.0,96,-99.99,,,0.00,weatherlink.com 1.10,2013-02-27 06:01:00,
2013-02-27 01:16:00,45.2,44.0,29.65,East,98,0.0,-999.0,96,-99.99,,,0.00,weatherlink.com 1.10,2013-02-27 06:16:00,
2013-02-27 01:47:00,44.7,44.0,29.65,ENE,62,1.0,-999.0,96,-99.99,,,0.00,weatherlink.com 1.10,2013-02-27 06:47:00,
2013-02-27 02:02:00,44.6,44.0,29.65,NE,41,1.0,-999.0,96,-99.99,,,0.00,weatherlink.com 1.10,2013-02-27 07:02:00,
2013-02-27 02:34:00,44.6,44.0,29.64,NE,37,1.0,-999.0,96,-99.99,,,0.00,weatherlink.com 1.10,2013-02-27 07:34:00,
2013-02-27 02:46:00,44.4,43.0,29.65,NNE,15,1.0,-999.0,95,-99.99,,,0.00,weatherlink.com 1.10,2013-02-27 07:46:00,
2013-02-27 03:01:00,44.4,43.0,29.65,NNE,27,0.0,-999.0,95,-99.99,,,0.00,weatherlink.com 1.10,2013-02-27 08:01:00,
2013-02-27 03:16:00,44.3,43.0,29.62,NNE,26,0.0,-999.0,95,-99.99,,,0.00,weatherlink.com 1.10,2013-02-27 08:16:00,
2013-02-27 03:31:00,44.3,43.0,29.63,NNE,26,0.0,-999.0,95,-99.99,,,0.00,weatherlink.com 1.10,2013-02-27 08:31:00,
2013-02-27 03:46:00,44.2,43.0,29.64,NNE,26,1.0,-999.0,95,-99.99,,,0.00,weatherlink.com 1.10,2013-02-27 08:46:00,
2013-02-27 04:01:00,44.2,43.0,29.64,NNE,17,0.0,-999.0,95,-99.99,,,0.00,weatherlink.com 1.10,2013-02-27 09:01:00,
2013-02-27 04:34:00,44.1,43.0,29.65,NNE,14,1.0,-999.0,94,-99.99,,,0.00,weatherlink.com 1.10,2013-02-27 09:34:00,
2013-02-27 04:46:00,44.0,42.0,29.66,NE,51,3.0,-999.0,92,-99.99,,,0.00,weatherlink.com 1.10,2013-02-27 09:46:00,
2013-02-27 05:01:00,43.8,42.0,29.67,NE,49,2.0,-999.0,92,-99.99,,,0.00,weatherlink.com 1.10,2013-02-27 10:01:00,
2013-02-27 05:34:00,43.8,42.0,29.67,North,11,1.0,-999.0,92,-99.99,,,0.00,weatherlink.com 1.10,2013-02-27 10:34:00,
2013-02-27 05:46:00,43.6,42.0,29.69,NE,44,1.0,-999.0,92,-99.99,,,0.00,weatherlink.com 1.10,2013-02-27 10:46:00,
2013-02-27 06:01:00,43.5,41.0,29.69,ENE,78,2.0,-999.0,92,-99.99,,,0.00,weatherlink.com 1.10,2013-02-27 11:01:00,
2013-02-27 06:34:00,43.4,41.0,29.69,ENE,62,1.0,-999.0,92,-99.99,,,0.00,weatherlink.com 1.10,2013-02-27 11:34:00,
2013-02-27 06:47:00,43.2,41.0,29.70,North,11,2.0,-999.0,92,-99.99,,,0.00,weatherlink.com 1.10,2013-02-27 11:47:00,
2013-02-27 07:02:00,43.1,41.0,29.71,ENE,59,0.0,-999.0,92,-99.99,,,0.00,weatherlink.com 1.10,2013-02-27 12:02:00,
2013-02-27 07:34:00,43.1,41.0,29.72,ENE,59,0.0,-999.0,92,-99.99,,,0.00,weatherlink.com 1.10,2013-02-27 12:34:00,
2013-02-27 07:47:00,42.9,41.0,29.74,NNE,20,0.0,-999.0,92,-99.99,,,0.00,weatherlink.com 1.10,2013-02-27 12:47:00,
2013-02-27 08:02:00,43.2,41.0,29.75,NNE,13,1.0,-999.0,92,-99.99,,,0.00,weatherlink.com 1.10,2013-02-27 13:02:00,
2013-02-27 08:34:00,43.3,41.0,29.75,NNE,13,1.0,-999.0,92,-99.99,,,0.00,weatherlink.com 1.10,2013-02-27 13:34:00,
2013-02-27 08:47:00,44.3,42.0,29.78,NNE,15,3.0,-999.0,90,-99.99,,,0.00,weatherlink.com 1.10,2013-02-27 13:47:00,
2013-02-27 09:02:00,44.8,42.0,29.78,NNE,14,1.0,-999.0,88,-99.99,,,0.00,weatherlink.com 1.10,2013-02-27 14:02:00,
2013-02-27 09:34:00,45.1,42.0,29.78,North,11,0.0,-999.0,87,-99.99,,,0.00,weatherlink.com 1.10,2013-02-27 14:34:00,
2013-02-27 09:47:00,46.8,41.0,29.78,North,9,4.0,-999.0,81,-99.99,,,0.00,weatherlink.com 1.10,2013-02-27 14:47:00,
2013-02-27 10:02:00,47.7,42.0,29.78,NNE,19,1.0,-999.0,79,-99.99,,,0.00,weatherlink.com 1.10,2013-02-27 15:02:00,
2013-02-27 10:34:00,48.2,41.0,29.78,East,86,0.0,-999.0,77,-99.99,,,0.00,weatherlink.com 1.10,2013-02-27 15:34:00,
2013-02-27 10:46:00,51.0,40.0,29.79,NNE,15,2.0,-999.0,65,-99.99,,,0.00,weatherlink.com 1.10,2013-02-27 15:46:00,
2013-02-27 11:01:00,52.0,40.0,29.79,NNE,18,2.0,-999.0,63,-99.99,,,0.00,weatherlink.com 1.10,2013-02-27 16:01:00,
2013-02-27 11:34:00,52.4,41.0,29.79,NNE,18,0.0,-999.0,65,-99.99,,,0.00,weatherlink.com 1.10,2013-02-27 16:34:00,
2013-02-27 11:46:00,53.4,38.0,29.78,North,360,2.0,-999.0,57,-99.99,,,0.00,weatherlink.com 1.10,2013-02-27 16:46:00,
2013-02-27 12:01:00,54.1,39.0,29.77,NE,37,2.0,-999.0,57,-99.99,,,0.00,weatherlink.com 1.10,2013-02-27 17:01:00,
2013-02-27 12:34:00,54.4,38.0,29.77,ENE,72,0.0,-999.0,55,-99.99,,,0.00,weatherlink.com 1.10,2013-02-27 17:34:00,
2013-02-27 12:47:00,55.6,37.0,29.76,NNE,30,0.0,-999.0,50,-99.99,,,0.00,weatherlink.com 1.10,2013-02-27 17:47:00,
2013-02-27 13:02:00,56.0,38.0,29.75,North,360,2.0,-999.0,52,-99.99,,,0.00,weatherlink.com 1.10,2013-02-27 18:02:00,
2013-02-27 13:34:00,56.0,37.0,29.75,NE,56,0.0,-999.0,49,-99.99,,,0.00,weatherlink.com 1.10,2013-02-27 18:34:00,
2013-02-27 13:46:00,57.5,39.0,29.74,NNE,22,0.0,-999.0,50,-99.99,,,0.00,weatherlink.com 1.10,2013-02-27 18:46:00,
2013-02-27 14:01:00,59.1,40.0,29.74,SE,137,0.0,-999.0,49,-99.99,,,0.01,weatherlink.com 1.10,2013-02-27 19:01:00,
2013-02-27 14:34:00,58.6,39.0,29.74,East,80,2.0,-999.0,48,-99.99,,,0.01,weatherlink.com 1.10,2013-02-27 19:34:00,
2013-02-27 14:46:00,58.5,39.0,29.73,ENE,74,5.0,-999.0,48,-99.99,,,0.01,weatherlink.com 1.10,2013-02-27 19:46:00,
2013-02-27 15:01:00,59.4,39.0,29.73,East,87,2.0,-999.0,48,-99.99,,,0.01,weatherlink.com 1.10,2013-02-27 20:01:00,
2013-02-27 15:35:00,59.3,39.0,29.73,East,88,0.0,-999.0,48,-99.99,,,0.01,weatherlink.com 1.10,2013-02-27 20:35:00,
2013-02-27 15:47:00,58.7,39.0,29.72,East,80,2.0,-999.0,49,-99.99,,,0.01,weatherlink.com 1.10,2013-02-27 20:47:00,
2013-02-27 16:02:00,59.0,40.0,29.72,ENE,70,1.0,-999.0,50,-99.99,,,0.01,weatherlink.com 1.10,2013-02-27 21:02:00,
2013-02-27 16:34:00,59.0,40.0,29.72,East,79,2.0,-999.0,50,-99.99,,,0.01,weatherlink.com 1.10,2013-02-27 21:34:00,
2013-02-27 16:46:00,59.1,40.0,29.71,East,84,1.0,-999.0,49,-99.99,,,0.01,weatherlink.com 1.10,2013-02-27 21:46:00,
2013-02-27 17:02:00,58.6,40.0,29.71,ENE,64,0.0,-999.0,51,-99.99,,,0.01,weatherlink.com 1.10,2013-02-27 22:02:00,
2013-02-27 17:34:00,58.5,40.0,29.71,East,92,3.0,-999.0,51,-99.99,,,0.01,weatherlink.com 1.10,2013-02-27 22:34:00,
2013-02-27 17:46:00,57.4,40.0,29.72,East,79,2.0,-999.0,53,-99.99,,,0.01,weatherlink.com 1.10,2013-02-27 22:46:00,
2013-02-27 18:01:00,56.4,41.0,29.73,East,95,2.0,-999.0,56,-99.99,,,0.01,weatherlink.com 1.10,2013-02-27 23:01:00,
2013-02-27 18:34:00,55.9,41.0,29.73,East,86,0.0,-999.0,57,-99.99,,,0.01,weatherlink.com 1.10,2013-02-27 23:34:00,
2013-02-27 18:46:00,54.3,40.0,29.73,East,84,0.0,-999.0,60,-99.99,,,0.01,weatherlink.com 1.10,2013-02-27 23:46:00,
2013-02-27 19:01:00,53.7,41.0,29.74,East,84,1.0,-999.0,62,-99.99,,,0.01,weatherlink.com 1.10,2013-02-28 00:01:00,
2013-02-27 19:34:00,53.4,41.0,29.74,East,84,0.0,-999.0,63,-99.99,,,0.01,weatherlink.com 1.10,2013-02-28 00:34:00,
2013-02-27 19:46:00,51.9,41.0,29.73,East,84,0.0,-999.0,67,-99.99,,,0.01,weatherlink.com 1.10,2013-02-28 00:46:00,
2013-02-27 20:01:00,51.3,41.0,29.74,East,84,0.0,-999.0,67,-99.99,,,0.01,weatherlink.com 1.10,2013-02-28 01:01:00,
2013-02-27 20:34:00,51.1,41.0,29.73,East,84,0.0,-999.0,68,-99.99,,,0.01,weatherlink.com 1.10,2013-02-28 01:34:00,
2013-02-27 20:46:00,49.3,41.0,29.73,East,84,0.0,-999.0,73,-99.99,,,0.01,weatherlink.com 1.10,2013-02-28 01:46:00,
2013-02-27 21:01:00,49.3,41.0,29.73,East,84,1.0,-999.0,72,-99.99,,,0.01,weatherlink.com 1.10,2013-02-28 02:01:00,
2013-02-27 21:35:00,49.5,41.0,29.73,East,84,0.0,-999.0,72,-99.99,,,0.01,weatherlink.com 1.10,2013-02-28 02:35:00,
2013-02-27 21:47:00,49.5,41.0,29.73,East,93,0.0,-999.0,72,-99.99,,,0.01,weatherlink.com 1.10,2013-02-28 02:47:00,
2013-02-27 22:02:00,49.0,41.0,29.73,East,93,0.0,-999.0,73,-99.99,,,0.01,weatherlink.com 1.10,2013-02-28 03:02:00,
2013-02-27 22:34:00,48.7,41.0,29.73,East,93,0.0,-999.0,74,-99.99,,,0.01,weatherlink.com 1.10,2013-02-28 03:34:00,
2013-02-27 22:46:00,46.5,40.0,29.72,East,93,0.0,-999.0,79,-99.99,,,0.01,weatherlink.com 1.10,2013-02-28 03:46:00,
2013-02-27 23:01:00,45.8,40.0,29.72,East,93,0.0,-999.0,81,-99.99,,,0.01,weatherlink.com 1.10,2013-02-28 04:01:00,
2013-02-27 23:31:00,44.2,40.0,29.71,East,93,0.0,-999.0,84,-99.99,,,0.01,weatherlink.com 1.10,2013-02-28 04:31:00,
2013-02-27 23:46:00,43.8,40.0,29.70,East,93,0.0,-999.0,86,-99.99,,,0.01,weatherlink.com 1.10,2013-02-28 04:46:00,